Time;durP1;ratioP1;P1;durP2;ratioP2;P2;SDS_P1;SDS_P2;PMS_P1;PMS_P2;Temp;Humidity;BMP_temperature;BMP_pressure;BME280_temperature;BME280_humidity;BME280_pressure;Samples;Min_cycle;Max_cycle;Signal;HPM_P1;HPM_P2
2021/10/05 07:56:42;;;;;;;3.78;1.40;;;10.10;99.90;;;;;;5280435;23;20075;-92
2021/10/05 07:59:08;;;;;;;3.53;1.02;;;10.20;99.90;;;;;;4940265;29;20055;-92
2021/10/05 08:01:37;;;;;;;1.20;1.00;;;10.30;99.90;;;;;;4941883;29;20436;-91
2021/10/05 08:04:03;;;;;;;2.92;1.00;;;10.40;99.90;;;;;;4940030;29;20098;-93
2021/10/05 08:06:28;;;;;;;1.80;0.80;;;10.40;99.90;;;;;;4941171;29;20070;-91
2021/10/05 08:08:54;;;;;;;1.95;1.60;;;10.50;99.90;;;;;;4940952;29;20031;-91
2021/10/05 08:11:21;;;;;;;2.10;1.10;;;10.50;99.90;;;;;;4940322;29;20070;-91
2021/10/05 08:13:47;;;;;;;2.72;0.82;;;10.60;99.90;;;;;;4939691;29;20454;-93
2021/10/05 08:16:13;;;;;;;5.15;1.10;;;10.70;99.90;;;;;;4939748;29;20027;-92
2021/10/05 08:18:39;;;;;;;1.73;1.00;;;10.70;99.90;;;;;;4939796;29;20039;-93
2021/10/05 08:21:04;;;;;;;3.53;1.08;;;10.60;99.90;;;;;;4939794;29;20077;-90
2021/10/05 08:23:30;;;;;;;4.22;1.30;;;10.60;99.90;;;;;;4939972;29;20031;-92
2021/10/05 08:25:56;;;;;;;4.68;1.13;;;10.70;99.90;;;;;;4939331;29;20030;-92
2021/10/05 08:28:22;;;;;;;2.53;1.17;;;10.60;99.90;;;;;;4939570;29;20031;-93
2021/10/05 08:30:48;;;;;;;6.60;1.33;;;10.60;99.90;;;;;;4939816;29;20042;-92
2021/10/05 08:33:14;;;;;;;1.05;0.80;;;10.70;99.90;;;;;;4940844;29;20504;-92
2021/10/05 08:35:40;;;;;;;5.53;2.55;;;10.80;99.90;;;;;;4925080;29;20028;-92
2021/10/05 08:38:06;;;;;;;9.27;2.47;;;10.80;99.90;;;;;;4920708;29;20036;-92
2021/10/05 08:40:33;;;;;;;5.47;2.38;;;10.90;99.90;;;;;;4918973;29;20031;-91
2021/10/05 08:43:00;;;;;;;4.95;2.53;;;10.90;99.90;;;;;;4920861;29;20019;-92
2021/10/05 08:45:49;;;;;;;5.07;2.55;;;10.90;99.90;;;;;;4926373;29;20481;-92
2021/10/05 08:48:15;;;;;;;4.57;2.88;;;10.90;99.90;;;;;;4936471;29;20034;-92
2021/10/05 08:50:45;;;;;;;7.90;3.95;;;10.80;99.90;;;;;;4921945;29;20023;-92
2021/10/05 08:53:28;;;;;;;6.68;4.93;;;10.80;99.90;;;;;;4921769;29;20067;-93
2021/10/05 08:55:55;;;;;;;7.18;5.55;;;10.90;99.90;;;;;;4918281;29;20035;-92
2021/10/05 08:58:20;;;;;;;9.52;5.63;;;10.90;99.90;;;;;;4920288;29;20123;-92
2021/10/05 09:00:46;;;;;;;8.35;5.57;;;10.90;99.90;;;;;;4920091;29;20114;-93
2021/10/05 09:03:24;;;;;;;7.05;5.80;;;10.90;99.90;;;;;;4920019;29;20515;-92
2021/10/05 09:05:50;;;;;;;12.13;7.70;;;10.80;99.90;;;;;;4920408;29;20038;-92
2021/10/05 09:08:24;;;;;;;14.25;7.78;;;10.80;99.90;;;;;;4920485;29;20044;-93
2021/10/05 09:11:09;;;;;;;14.13;8.90;;;10.80;99.90;;;;;;4920356;29;20062;-93
2021/10/05 09:13:45;;;;;;;13.40;9.45;;;10.80;99.90;;;;;;4920001;29;20130;-92
2021/10/05 09:16:22;;;;;;;15.55;8.88;;;10.80;99.90;;;;;;4938146;29;20101;-93
2021/10/05 09:19:01;;;;;;;14.90;9.05;;;10.70;99.90;;;;;;4900494;29;20493;-93
2021/10/05 09:21:42;;;;;;;14.35;9.35;;;10.70;99.90;;;;;;4900641;29;20443;-93
2021/10/05 09:24:36;;;;;;;14.90;9.65;;;10.70;99.90;;;;;;4900411;29;20104;-91
2021/10/05 09:27:04;;;;;;;16.02;10.43;;;10.70;99.90;;;;;;4913782;29;20138;-92
2021/10/05 09:29:33;;;;;;;13.07;10.02;;;10.70;99.90;;;;;;4900902;29;20123;-93
2021/10/05 09:32:03;;;;;;;16.35;10.40;;;10.70;99.90;;;;;;4900569;29;20028;-93
2021/10/05 09:34:43;;;;;;;17.60;11.50;;;10.70;99.90;;;;;;4900729;29;20024;-92
2021/10/05 09:37:13;;;;;;;14.68;10.63;;;10.80;99.90;;;;;;4900728;29;20032;-93
2021/10/05 09:39:47;;;;;;;15.45;10.52;;;10.80;99.90;;;;;;4900489;29;20490;-90
2021/10/05 09:42:22;;;;;;;12.40;7.20;;;10.80;99.90;;;;;;4899957;29;20032;-91
2021/10/05 09:44:53;;;;;;;8.50;5.93;;;10.80;99.90;;;;;;4900431;29;20040;-91
2021/10/05 09:47:37;;;;;;;6.72;4.88;;;10.80;99.90;;;;;;4903788;29;20032;-90
2021/10/05 09:50:12;;;;;;;5.43;2.80;;;10.80;99.90;;;;;;4905861;29;20024;-92
2021/10/05 09:52:50;;;;;;;5.65;3.35;;;10.80;99.90;;;;;;4903001;29;20403;-91
2021/10/05 09:55:19;;;;;;;3.25;2.20;;;10.70;99.90;;;;;;4917650;29;20027;-92
2021/10/05 09:57:44;;;;;;;2.03;1.50;;;10.70;99.90;;;;;;4919221;29;20047;-92
2021/10/05 10:00:12;;;;;;;1.67;1.40;;;10.60;99.90;;;;;;4918827;29;20063;-92
2021/10/05 10:02:39;;;;;;;5.28;1.00;;;10.60;99.90;;;;;;4919064;29;20033;-91
2021/10/05 10:05:14;;;;;;;1.33;1.02;;;10.60;99.90;;;;;;4921288;29;20063;-92
2021/10/05 10:07:42;;;;;;;2.38;0.60;;;10.60;99.90;;;;;;4925398;29;20024;-90
2021/10/05 10:10:13;;;;;;;1.20;0.80;;;10.60;99.90;;;;;;4918965;29;20032;-91
2021/10/05 10:12:42;;;;;;;0.80;0.60;;;10.60;99.90;;;;;;4922505;29;20114;-91
2021/10/05 10:15:09;;;;;;;0.73;0.50;;;10.60;99.90;;;;;;4919571;29;20086;-92
2021/10/05 10:17:35;;;;;;;0.50;0.40;;;10.60;99.90;;;;;;4919480;29;20035;-91
2021/10/05 10:20:01;;;;;;;1.38;1.10;;;10.60;99.90;;;;;;4921903;29;20023;-92
2021/10/05 10:22:26;;;;;;;0.65;0.43;;;10.60;99.90;;;;;;4922611;29;20070;-91
2021/10/05 10:24:59;;;;;;;1.13;0.40;;;10.60;99.90;;;;;;4923264;29;20028;-91
2021/10/05 10:27:24;;;;;;;0.40;0.20;;;10.70;99.90;;;;;;4922869;29;20058;-91
2021/10/05 10:29:53;;;;;;;0.30;0.30;;;10.70;99.90;;;;;;4922348;29;20478;-91
2021/10/05 10:32:24;;;;;;;0.90;0.45;;;10.80;99.90;;;;;;4922803;29;20040;-90
2021/10/05 10:35:03;;;;;;;0.95;0.63;;;10.80;99.90;;;;;;4925132;29;20055;-90
2021/10/05 10:37:41;;;;;;;2.97;0.47;;;11.00;99.90;;;;;;4925452;29;20039;-90
2021/10/05 10:40:08;;;;;;;0.57;0.57;;;11.20;99.90;;;;;;4922679;29;20528;-90
2021/10/05 10:42:34;;;;;;;0.70;0.52;;;11.40;99.90;;;;;;4922853;29;20086;-90
2021/10/05 10:45:09;;;;;;;3.92;0.85;;;11.60;99.90;;;;;;4922622;29;20024;-90
2021/10/05 10:47:39;;;;;;;0.88;0.45;;;11.70;99.90;;;;;;4925026;29;20380;-90
2021/10/05 10:50:06;;;;;;;0.98;0.40;;;11.80;99.90;;;;;;4921866;29;20043;-91
2021/10/05 10:52:36;;;;;;;0.40;0.40;;;11.80;99.90;;;;;;4921410;29;20044;-91
2021/10/05 10:55:07;;;;;;;0.52;0.40;;;11.70;99.90;;;;;;4921958;29;20035;-93
2021/10/05 10:57:44;;;;;;;0.38;0.30;;;11.70;99.90;;;;;;4931300;29;20047;-91
2021/10/05 11:00:28;;;;;;;0.40;0.40;;;11.70;99.90;;;;;;4920320;29;20024;-90
2021/10/05 11:02:59;;;;;;;0.30;0.30;;;11.70;99.90;;;;;;4919015;29;20031;-91
2021/10/05 11:05:26;;;;;;;;;;;11.60;99.90;;;;;;4920963;29;20548;-91
2021/10/05 11:07:55;;;;;;;0.38;0.35;;;11.60;99.90;;;;;;4920283;29;19949;-92
2021/10/05 11:10:34;;;;;;;1.40;0.73;;;11.70;99.90;;;;;;4920022;29;20062;-91
2021/10/05 11:13:06;;;;;;;0.70;0.45;;;11.70;99.90;;;;;;4919881;29;20046;-92
2021/10/05 11:15:44;;;;;;;0.82;0.50;;;11.70;99.90;;;;;;4919783;29;20082;-92
2021/10/05 11:18:13;;;;;;;1.83;0.38;;;11.70;99.90;;;;;;4934149;29;20039;-93
2021/10/05 11:20:46;;;;;;;0.40;0.40;;;11.70;99.90;;;;;;4919593;29;20462;-93
2021/10/05 11:23:13;;;;;;;1.58;0.50;;;11.60;99.90;;;;;;4920037;29;20020;-93
2021/10/05 11:25:48;;;;;;;0.50;0.30;;;11.60;99.90;;;;;;4919818;29;20096;-93
2021/10/05 11:28:16;;;;;;;0.82;0.50;;;11.60;99.90;;;;;;4920044;29;20098;-92
2021/10/05 11:30:50;;;;;;;1.23;0.60;;;11.70;99.90;;;;;;4920754;29;20031;-93
2021/10/05 11:33:29;;;;;;;2.13;0.50;;;11.60;99.90;;;;;;4921632;29;20044;-92
2021/10/05 11:35:58;;;;;;;2.47;0.55;;;11.60;99.90;;;;;;4921949;29;20481;-93
2021/10/05 11:38:36;;;;;;;0.60;0.40;;;11.50;99.90;;;;;;4921983;29;20036;-93
2021/10/05 11:41:02;;;;;;;0.40;0.28;;;11.50;99.90;;;;;;4921434;29;20512;-92
2021/10/05 11:43:33;;;;;;;2.97;0.40;;;11.40;99.90;;;;;;4923914;29;20048;-92
2021/10/05 11:45:59;;;;;;;;;;;11.40;99.90;;;;;;4923881;29;20039;-93
2021/10/05 11:48:25;;;;;;;1.08;0.30;;;11.40;99.90;;;;;;4924326;29;19932;-92
2021/10/05 11:51:01;;;;;;;0.20;0.20;;;11.40;99.90;;;;;;4922186;29;20035;-93
2021/10/05 11:53:36;;;;;;;0.70;0.40;;;11.30;99.90;;;;;;4916924;29;20039;-93
2021/10/05 11:56:07;;;;;;;14.68;0.70;;;11.30;99.90;;;;;;4919124;29;20043;-93
2021/10/05 11:58:47;;;;;;;1.08;0.40;;;11.30;99.90;;;;;;4919591;29;20039;-92
2021/10/05 12:01:16;;;;;;;;;;;11.40;99.90;;;;;;4919014;29;20114;-93
2021/10/05 12:03:43;;;;;;;2.72;0.30;;;11.60;99.90;;;;;;4917163;29;19953;-92
2021/10/05 12:06:08;;;;;;;2.08;0.30;;;11.80;99.90;;;;;;4921161;29;20426;-92
2021/10/05 12:08:44;;;;;;;1.10;0.30;;;11.90;99.90;;;;;;4921136;29;20024;-92
2021/10/05 12:11:10;;;;;;;1.25;0.30;;;12.10;99.90;;;;;;4920888;29;20568;-90
2021/10/05 12:13:36;;;;;;;1.50;0.32;;;12.20;99.90;;;;;;4920981;29;20189;-92
2021/10/05 12:16:13;;;;;;;0.17;0.10;;;12.20;99.90;;;;;;4925403;29;20355;-91
2021/10/05 12:18:39;;;;;;;0.20;0.20;;;12.20;99.90;;;;;;4922787;29;20058;-92
2021/10/05 12:21:07;;;;;;;0.45;0.45;;;12.10;99.90;;;;;;4922499;29;20023;-92
2021/10/05 12:23:33;;;;;;;1.10;0.40;;;12.10;99.90;;;;;;4934336;29;20024;-92
2021/10/05 12:26:09;;;;;;;1.38;0.30;;;12.00;99.90;;;;;;4941593;29;20058;-91
2021/10/05 12:28:36;;;;;;;0.73;0.50;;;11.90;99.90;;;;;;4929246;29;20035;-91
2021/10/05 12:31:22;;;;;;;1.60;0.30;;;11.80;99.90;;;;;;4921180;29;20033;-90
2021/10/05 12:34:14;;;;;;;1.33;0.43;;;11.60;99.90;;;;;;4919330;29;20039;-90
2021/10/05 12:36:39;;;;;;;1.02;0.68;;;11.50;99.90;;;;;;4916235;29;20398;-91
2021/10/05 12:39:17;;;;;;;2.28;0.32;;;11.40;99.90;;;;;;4920395;29;20036;-91
2021/10/05 12:41:54;;;;;;;1.10;0.30;;;11.40;99.90;;;;;;4955119;28;20089;-91
2021/10/05 12:44:20;;;;;;;0.25;0.20;;;11.40;99.90;;;;;;4958463;29;20118;-91
2021/10/05 12:47:10;;;;;;;1.08;0.30;;;11.50;99.90;;;;;;4941497;29;20511;-91
2021/10/05 12:49:36;;;;;;;;;;;11.60;99.90;;;;;;4942697;29;20028;-92
2021/10/05 12:52:04;;;;;;;0.55;0.20;;;11.60;99.90;;;;;;4941166;29;19914;-91
2021/10/05 12:54:30;;;;;;;1.30;0.40;;;11.60;99.90;;;;;;4941730;29;20074;-92
2021/10/05 12:57:01;;;;;;;3.42;0.45;;;11.50;99.90;;;;;;4939468;29;20051;-93
2021/10/05 12:59:27;;;;;;;2.08;0.40;;;11.40;99.90;;;;;;4939164;29;20063;-92
2021/10/05 13:01:53;;;;;;;2.92;0.52;;;11.40;99.90;;;;;;4955228;29;20035;-92
2021/10/05 13:04:19;;;;;;;4.47;0.63;;;11.30;99.90;;;;;;4938910;29;20503;-91
2021/10/05 13:06:44;;;;;;;0.80;0.40;;;11.20;99.90;;;;;;4940007;29;20059;-91
2021/10/05 13:09:11;;;;;;;2.00;0.50;;;11.10;99.90;;;;;;4944093;29;20027;-92
2021/10/05 13:11:39;;;;;;;2.65;0.55;;;11.10;99.90;;;;;;4941280;29;20058;-90
2021/10/05 13:14:04;;;;;;;0.75;0.35;;;11.10;99.90;;;;;;4938814;29;20461;-91
2021/10/05 13:16:31;;;;;;;1.05;0.50;;;11.10;99.90;;;;;;4954953;29;20085;-91
2021/10/05 13:18:56;;;;;;;0.73;0.30;;;11.10;99.90;;;;;;4939121;29;20035;-91
2021/10/05 13:21:25;;;;;;;3.78;0.60;;;11.10;99.90;;;;;;4954731;29;20034;-93
2021/10/05 13:23:51;;;;;;;1.75;0.43;;;11.00;99.90;;;;;;4936347;29;20027;-91
2021/10/05 13:26:16;;;;;;;0.25;0.25;;;11.00;99.90;;;;;;4919042;29;20118;-93
2021/10/05 13:28:42;;;;;;;1.02;0.45;;;10.90;99.90;;;;;;4919072;29;20043;-92
2021/10/05 13:31:08;;;;;;;0.75;0.50;;;10.80;99.90;;;;;;4919782;29;20692;-92
2021/10/05 13:33:34;;;;;;;1.50;0.50;;;10.80;99.90;;;;;;4919595;29;20051;-94
2021/10/05 13:36:00;;;;;;;0.90;0.50;;;10.80;99.90;;;;;;4919766;29;20078;-90
2021/10/05 13:38:25;;;;;;;3.92;0.60;;;10.70;99.90;;;;;;4919362;29;20031;-91
2021/10/05 13:40:51;;;;;;;5.55;0.60;;;10.70;99.90;;;;;;4914219;29;20031;-91
2021/10/05 13:43:19;;;;;;;0.80;0.30;;;10.80;99.90;;;;;;4915910;29;20129;-90
2021/10/05 13:45:46;;;;;;;0.88;0.40;;;10.70;99.90;;;;;;4917262;29;20020;-91
2021/10/05 13:48:12;;;;;;;4.80;0.47;;;10.70;99.90;;;;;;4919129;29;20032;-91
2021/10/05 13:50:39;;;;;;;0.75;0.30;;;10.70;99.90;;;;;;4916534;29;20501;-92
2021/10/05 13:53:06;;;;;;;2.28;0.47;;;10.60;99.90;;;;;;4916078;29;20040;-92
2021/10/05 13:55:32;;;;;;;1.48;0.32;;;10.60;99.90;;;;;;4919930;29;20035;-92
2021/10/05 13:57:58;;;;;;;1.02;0.40;;;10.70;99.90;;;;;;4920470;29;20127;-92
2021/10/05 14:00:24;;;;;;;2.25;0.30;;;10.70;99.90;;;;;;4919619;29;20119;-93
2021/10/05 14:02:50;;;;;;;1.55;0.40;;;10.70;99.90;;;;;;4920400;29;20032;-92
2021/10/05 14:05:16;;;;;;;0.75;0.30;;;10.80;99.90;;;;;;4921648;29;20363;-93
2021/10/05 14:07:41;;;;;;;0.30;0.30;;;10.80;99.90;;;;;;4920714;29;20038;-93
2021/10/05 14:10:09;;;;;;;2.00;0.40;;;10.80;99.90;;;;;;4921271;29;20428;-93
2021/10/05 14:12:35;;;;;;;2.15;0.40;;;10.80;99.90;;;;;;4923967;29;20040;-93
2021/10/05 14:15:03;;;;;;;1.85;0.40;;;10.80;99.90;;;;;;4927576;29;20032;-93
2021/10/05 14:17:32;;;;;;;0.28;0.20;;;10.80;99.90;;;;;;4924290;29;20064;-92
2021/10/05 14:20:00;;;;;;;1.15;0.28;;;10.80;99.90;;;;;;4926064;29;20055;-92
2021/10/05 14:22:25;;;;;;;0.20;0.20;;;10.80;99.90;;;;;;4923379;29;20557;-93
2021/10/05 14:24:53;;;;;;;2.25;0.35;;;10.70;99.90;;;;;;4947640;29;20039;-93
2021/10/05 14:27:19;;;;;;;1.35;0.30;;;10.70;99.90;;;;;;4943774;29;20031;-93
2021/10/05 14:29:47;;;;;;;3.63;0.20;;;10.80;99.90;;;;;;4943118;29;20047;-93
2021/10/05 17:07:57;;;;;;;0.40;0.30;;;9.70;99.90;;;;;;5168591;23;20408;-90
2021/10/05 17:10:39;;;;;;;1.23;0.77;;;9.70;99.90;;;;;;4938852;29;20523;-89
2021/10/05 17:13:05;;;;;;;1.08;0.70;;;9.70;99.90;;;;;;4948162;28;20032;-89
2021/10/05 17:15:31;;;;;;;0.47;0.38;;;9.70;99.90;;;;;;4933405;29;20042;-91
2021/10/05 17:17:57;;;;;;;0.73;0.50;;;9.70;99.90;;;;;;4932039;29;20485;-93
2021/10/05 17:20:38;;;;;;;0.90;0.60;;;9.70;99.90;;;;;;4930067;29;20088;-91
2021/10/05 17:23:22;;;;;;;0.40;0.30;;;9.70;99.90;;;;;;4935263;29;20047;-92
2021/10/05 17:25:51;;;;;;;0.30;0.30;;;9.70;99.90;;;;;;4930176;29;20123;-93
2021/10/05 17:28:19;;;;;;;0.32;0.20;;;9.70;99.90;;;;;;4933447;29;20604;-91
2021/10/05 17:30:56;;;;;;;0.75;0.40;;;9.70;99.90;;;;;;4929817;29;20066;-91
2021/10/05 17:33:22;;;;;;;1.80;0.50;;;9.60;99.90;;;;;;4925138;29;20039;-91
2021/10/05 17:35:53;;;;;;;0.90;0.20;;;9.70;99.90;;;;;;4915362;29;20744;-90
2021/10/05 17:38:22;;;;;;;0.28;0.28;;;9.70;99.90;;;;;;4931487;29;20024;-90
2021/10/05 17:40:51;;;;;;;0.40;0.40;;;9.60;99.90;;;;;;4933741;29;20020;-90
2021/10/05 17:43:16;;;;;;;2.55;0.40;;;9.70;99.90;;;;;;4931819;29;20485;-92
2021/10/05 17:45:45;;;;;;;1.13;0.20;;;9.60;99.90;;;;;;4919850;29;20032;-92
2021/10/05 17:48:11;;;;;;;3.65;2.53;;;9.60;99.90;;;;;;4899663;29;20032;-92
2021/10/05 17:50:37;;;;;;;0.90;0.70;;;9.60;99.90;;;;;;4926003;29;20478;-92
2021/10/05 17:53:03;;;;;;;0.20;0.20;;;9.60;99.90;;;;;;4935203;29;20098;-93
2021/10/05 17:55:29;;;;;;;2.95;0.98;;;9.50;99.90;;;;;;4944173;29;20028;-92
2021/10/05 17:57:55;;;;;;;14.82;3.35;;;9.50;99.90;;;;;;4946170;29;20126;-92
2021/10/05 18:00:20;;;;;;;3.78;0.55;;;9.50;99.90;;;;;;4938247;29;20451;-91
2021/10/05 18:02:55;;;;;;;0.57;0.25;;;9.50;99.90;;;;;;4934822;29;20062;-92
2021/10/05 18:05:23;;;;;;;3.22;0.88;;;9.50;99.90;;;;;;4917477;29;20028;-91
2021/10/05 18:07:48;;;;;;;4.55;0.68;;;9.40;99.90;;;;;;4915892;29;20098;-91
2021/10/05 18:10:36;;;;;;;1.27;0.47;;;9.40;99.90;;;;;;4933683;29;20028;-92
2021/10/05 18:13:05;;;;;;;3.30;0.60;;;9.40;99.90;;;;;;4933575;29;20051;-92
2021/10/05 18:15:31;;;;;;;0.40;0.13;;;9.40;99.90;;;;;;4933663;29;20016;-92
2021/10/05 18:18:00;;;;;;;0.25;0.20;;;9.40;99.90;;;;;;4931874;29;20498;-90
2021/10/05 18:20:35;;;;;;;2.90;0.63;;;9.40;99.90;;;;;;4932873;29;20031;-91
2021/10/05 18:23:10;;;;;;;2.20;0.70;;;9.40;99.90;;;;;;4930289;29;20024;-90
2021/10/05 18:25:45;;;;;;;0.70;0.50;;;9.40;99.90;;;;;;4930615;29;20063;-91
2021/10/05 18:28:12;;;;;;;1.17;0.50;;;9.40;99.90;;;;;;4930976;29;20031;-88
2021/10/05 18:30:38;;;;;;;1.23;0.50;;;9.40;99.90;;;;;;4933937;29;20024;-91
2021/10/05 18:33:04;;;;;;;0.17;0.17;;;9.50;99.90;;;;;;4932867;29;20043;-90
2021/10/05 18:35:32;;;;;;;0.17;0.17;;;9.40;99.90;;;;;;4931922;29;20034;-89
2021/10/05 18:37:58;;;;;;;1.63;0.40;;;9.50;99.90;;;;;;4932321;29;20079;-90
2021/10/05 18:40:24;;;;;;;0.50;0.30;;;9.40;99.90;;;;;;4933988;29;20067;-91
2021/10/05 18:42:53;;;;;;;1.23;0.50;;;9.40;99.90;;;;;;4935988;29;20095;-91
2021/10/05 18:45:20;;;;;;;0.75;0.55;;;9.50;99.90;;;;;;4932877;29;20135;-88
2021/10/05 18:47:46;;;;;;;0.52;0.40;;;9.40;99.90;;;;;;4932466;29;20032;-92
2021/10/05 18:50:12;;;;;;;0.30;0.30;;;9.50;99.90;;;;;;4933433;29;20091;-91
2021/10/05 18:52:39;;;;;;;2.53;0.45;;;9.50;99.90;;;;;;4936382;29;20126;-90
2021/10/05 18:55:05;;;;;;;0.70;0.30;;;9.40;99.90;;;;;;4935444;29;20032;-90
2021/10/05 18:57:31;;;;;;;1.65;0.40;;;9.40;99.90;;;;;;4931043;29;20121;-90
2021/10/05 18:59:57;;;;;;;1.65;0.45;;;9.40;99.90;;;;;;4934318;29;20028;-89
2021/10/05 19:02:22;;;;;;;2.83;0.60;;;9.40;99.90;;;;;;4934633;29;20055;-88
2021/10/05 19:04:48;;;;;;;2.40;0.20;;;9.30;99.90;;;;;;4935364;29;20497;-89
2021/10/05 19:07:14;;;;;;;0.52;0.10;;;9.30;99.90;;;;;;4938464;29;20082;-90
2021/10/05 19:09:40;;;;;;;2.03;0.10;;;9.30;99.90;;;;;;4934169;29;20036;-89
2021/10/05 19:12:05;;;;;;;0.10;0.10;;;9.30;99.90;;;;;;4927044;29;20036;-90
2021/10/05 19:14:31;;;;;;;1.48;0.20;;;9.30;99.90;;;;;;4928237;29;20063;-88
2021/10/05 19:17:01;;;;;;;0.85;0.30;;;9.20;99.90;;;;;;4936416;29;20048;-90
2021/10/05 19:19:27;;;;;;;1.45;0.20;;;9.20;99.90;;;;;;4935410;29;20091;-90
2021/10/05 19:21:55;;;;;;;0.35;0.28;;;9.20;99.90;;;;;;4936650;29;20028;-89
2021/10/05 19:24:21;;;;;;;0.30;0.30;;;9.30;99.90;;;;;;4932159;29;20015;-89
2021/10/05 19:26:47;;;;;;;0.47;0.38;;;9.30;99.90;;;;;;4917516;29;20486;-90
2021/10/05 19:29:13;;;;;;;0.43;0.30;;;9.30;99.90;;;;;;4902310;29;20031;-91
2021/10/05 19:31:40;;;;;;;1.50;0.35;;;9.30;99.90;;;;;;4908160;29;20086;-89
2021/10/05 19:34:06;;;;;;;0.85;0.40;;;9.30;99.90;;;;;;4909192;29;20684;-90
2021/10/05 19:36:32;;;;;;;1.13;0.50;;;9.30;99.90;;;;;;4912780;29;20035;-92
2021/10/05 19:39:00;;;;;;;1.45;0.30;;;9.30;99.90;;;;;;4911660;29;20032;-91
2021/10/05 19:41:26;;;;;;;0.50;0.20;;;9.20;99.90;;;;;;4913585;29;20067;-91
2021/10/05 19:43:54;;;;;;;0.38;0.38;;;9.30;99.90;;;;;;4924302;29;20109;-92
2021/10/05 19:46:20;;;;;;;0.68;0.30;;;9.30;99.90;;;;;;4910273;29;20031;-92
2021/10/05 19:48:47;;;;;;;1.92;0.40;;;9.30;99.90;;;;;;4912443;29;20027;-91
2021/10/05 19:51:12;;;;;;;1.00;0.30;;;9.30;99.90;;;;;;4920469;29;20327;-90
2021/10/05 19:53:41;;;;;;;0.38;0.32;;;9.20;99.90;;;;;;4919073;29;20044;-91
2021/10/05 19:56:07;;;;;;;1.92;0.50;;;9.20;99.90;;;;;;4915478;29;20196;-91
2021/10/05 19:58:33;;;;;;;2.17;0.43;;;9.20;99.90;;;;;;4913571;29;20032;-90
2021/10/05 20:00:58;;;;;;;0.95;0.43;;;9.20;99.90;;;;;;4921944;29;20028;-91
2021/10/05 20:03:24;;;;;;;1.02;0.30;;;9.20;99.90;;;;;;4923990;29;20120;-92
2021/10/05 20:05:50;;;;;;;1.02;0.40;;;9.30;99.90;;;;;;4911974;29;20031;-91
2021/10/05 20:08:15;;;;;;;0.40;0.38;;;9.30;99.90;;;;;;4916979;29;20398;-90
2021/10/05 20:10:41;;;;;;;2.22;0.45;;;9.30;99.90;;;;;;4909858;29;20095;-90
2021/10/05 20:13:09;;;;;;;1.30;0.50;;;9.30;99.90;;;;;;4918120;29;20138;-92
2021/10/05 20:15:36;;;;;;;1.92;0.90;;;9.30;99.90;;;;;;4931506;29;20027;-90
2021/10/05 20:18:02;;;;;;;0.50;0.50;;;9.30;99.90;;;;;;4921534;29;20040;-89
2021/10/05 20:20:29;;;;;;;3.03;0.85;;;9.30;99.90;;;;;;4914806;29;20038;-91
2021/10/05 20:22:55;;;;;;;0.50;0.40;;;9.30;99.90;;;;;;4921750;29;20031;-90
2021/10/05 20:25:21;;;;;;;0.52;0.35;;;9.30;99.90;;;;;;4923896;29;20107;-91
2021/10/05 20:27:47;;;;;;;0.68;0.50;;;9.30;99.90;;;;;;4921668;29;20028;-90
2021/10/05 20:30:15;;;;;;;2.10;0.40;;;9.30;99.90;;;;;;4916328;29;20105;-92
2021/10/05 20:32:42;;;;;;;1.80;0.30;;;9.30;99.90;;;;;;4919019;29;20070;-91
2021/10/05 20:35:08;;;;;;;3.55;1.58;;;9.40;99.90;;;;;;4914394;29;20044;-91
2021/10/05 20:37:34;;;;;;;5.10;1.95;;;9.40;99.90;;;;;;4914869;29;20441;-91
2021/10/05 20:40:00;;;;;;;0.73;0.50;;;9.40;99.90;;;;;;4916759;29;20032;-91
2021/10/05 20:42:25;;;;;;;1.58;0.50;;;9.40;99.90;;;;;;4915281;29;20024;-90
2021/10/05 20:44:54;;;;;;;1.10;0.40;;;9.40;99.90;;;;;;4914280;29;20082;-91
2021/10/05 20:47:23;;;;;;;0.57;0.20;;;9.40;99.90;;;;;;4914961;29;20044;-90
2021/10/05 20:49:49;;;;;;;1.45;0.40;;;9.50;99.90;;;;;;4915300;29;20023;-91
2021/10/05 20:52:15;;;;;;;0.98;0.50;;;9.50;99.90;;;;;;4912626;29;20123;-90
2021/10/05 20:54:44;;;;;;;0.95;0.50;;;9.50;99.90;;;;;;4933340;29;20084;-91
2021/10/05 20:57:09;;;;;;;3.65;0.70;;;9.60;99.90;;;;;;4927335;29;20716;-90
2021/10/05 20:59:39;;;;;;;1.02;0.40;;;9.60;99.90;;;;;;4917204;29;20035;-92
2021/10/05 21:02:05;;;;;;;3.30;0.32;;;9.60;99.90;;;;;;4916414;29;20026;-92
2021/10/05 21:04:40;;;;;;;2.60;1.02;;;9.60;99.90;;;;;;4912858;29;20114;-90
2021/10/05 21:07:07;;;;;;;2.08;0.57;;;9.70;99.90;;;;;;4906119;29;20041;-91
2021/10/05 21:09:38;;;;;;;3.72;0.90;;;9.80;99.90;;;;;;4916709;29;20051;-92
2021/10/05 21:12:05;;;;;;;1.30;0.60;;;9.80;99.90;;;;;;4927645;29;20031;-90
2021/10/05 21:14:31;;;;;;;1.85;0.68;;;9.80;99.90;;;;;;4911800;29;20103;-91
2021/10/05 21:16:57;;;;;;;3.03;0.50;;;9.80;99.90;;;;;;4908499;29;20020;-90
2021/10/05 21:19:22;;;;;;;8.52;0.52;;;9.80;99.90;;;;;;4914303;29;20036;-91
2021/10/05 21:21:52;;;;;;;3.05;0.47;;;9.80;99.90;;;;;;4918245;29;20573;-90
2021/10/05 21:24:18;;;;;;;1.60;0.50;;;9.80;99.90;;;;;;4933945;29;20056;-90
2021/10/05 21:27:15;;;;;;;2.65;0.60;;;9.80;99.90;;;;;;4917900;29;20032;-91
2021/10/05 21:29:41;;;;;;;4.10;0.77;;;9.80;99.90;;;;;;4927505;29;20032;-89
2021/10/05 21:32:07;;;;;;;4.53;0.80;;;9.80;99.90;;;;;;4931619;29;20035;-90
2021/10/05 21:34:33;;;;;;;3.17;0.80;;;9.80;99.90;;;;;;4929615;29;20474;-91
2021/10/05 21:36:59;;;;;;;5.03;0.70;;;9.80;99.90;;;;;;4933721;29;20087;-90
2021/10/05 21:39:25;;;;;;;4.32;0.60;;;9.90;99.90;;;;;;4927375;29;20035;-91
2021/10/05 21:41:51;;;;;;;5.45;0.80;;;9.90;99.90;;;;;;4935192;29;20046;-91
2021/10/05 21:44:17;;;;;;;2.92;0.90;;;9.90;99.90;;;;;;4943641;29;20474;-91
2021/10/05 21:46:45;;;;;;;10.55;1.30;;;9.90;99.90;;;;;;4939519;29;20028;-91
2021/10/05 21:49:16;;;;;;;5.70;1.20;;;10.00;99.90;;;;;;4934848;29;20486;-91
2021/10/05 21:52:11;;;;;;;5.20;1.00;;;10.00;99.90;;;;;;4933869;29;20521;-91
2021/10/05 21:54:37;;;;;;;5.97;0.80;;;10.00;99.90;;;;;;4906361;29;20039;-92
2021/10/05 21:57:03;;;;;;;10.55;0.90;;;10.10;99.90;;;;;;4922612;29;20027;-91
2021/10/05 21:59:29;;;;;;;5.05;1.02;;;10.10;99.90;;;;;;4926607;29;20032;-91
2021/10/05 22:01:54;;;;;;;5.90;0.95;;;10.10;99.90;;;;;;4928372;29;20031;-92
2021/10/05 22:04:41;;;;;;;7.65;0.90;;;10.10;99.90;;;;;;4931094;29;20163;-93
2021/10/05 22:07:06;;;;;;;7.18;1.20;;;10.10;99.90;;;;;;4924925;29;20051;-91
2021/10/05 22:09:32;;;;;;;5.10;0.70;;;10.20;99.90;;;;;;4898530;29;20024;-92
2021/10/05 22:12:00;;;;;;;3.92;0.73;;;10.20;99.90;;;;;;4914087;29;20032;-91
2021/10/05 22:14:26;;;;;;;10.23;1.10;;;10.30;99.90;;;;;;4899569;29;20123;-91
2021/10/05 22:16:52;;;;;;;5.78;0.65;;;10.30;99.90;;;;;;4902865;29;20061;-90
2021/10/05 22:19:18;;;;;;;7.45;1.20;;;10.30;99.90;;;;;;4919564;29;20040;-90
2021/10/05 22:21:44;;;;;;;6.88;0.70;;;10.30;99.90;;;;;;4902615;29;20028;-91
2021/10/05 22:24:10;;;;;;;5.45;0.70;;;10.30;99.90;;;;;;4902873;29;20028;-90
2021/10/05 22:26:38;;;;;;;4.35;0.68;;;10.40;99.90;;;;;;4902422;29;20401;-91
2021/10/05 22:29:05;;;;;;;4.55;1.05;;;10.40;99.90;;;;;;4919002;29;20036;-91
2021/10/05 22:31:32;;;;;;;4.97;0.90;;;10.40;99.90;;;;;;4918987;29;20032;-91
2021/10/05 22:33:58;;;;;;;3.42;0.55;;;10.40;99.90;;;;;;4918383;29;20570;-91
2021/10/05 22:36:25;;;;;;;6.47;0.75;;;10.40;99.90;;;;;;4918487;29;20393;-91
2021/10/05 22:38:52;;;;;;;4.00;0.57;;;10.40;99.90;;;;;;4918845;29;20038;-91
2021/10/05 22:41:18;;;;;;;10.05;0.95;;;10.40;99.90;;;;;;4918845;29;20063;-89
2021/10/05 22:43:52;;;;;;;4.90;0.57;;;10.40;99.90;;;;;;4918618;29;20024;-90
2021/10/05 22:46:18;;;;;;;6.43;0.98;;;10.40;99.90;;;;;;4918642;29;20025;-90
2021/10/05 22:48:46;;;;;;;4.53;0.70;;;10.30;99.90;;;;;;4918805;29;20550;-90
2021/10/05 22:51:12;;;;;;;5.68;0.60;;;10.30;99.90;;;;;;4918774;29;20096;-91
2021/10/05 22:53:37;;;;;;;3.75;0.80;;;10.30;99.90;;;;;;4918869;29;20748;-91
2021/10/05 22:56:05;;;;;;;6.55;0.85;;;10.30;99.90;;;;;;4918582;29;20076;-90
2021/10/05 22:58:31;;;;;;;6.47;0.98;;;10.30;99.90;;;;;;4918567;29;20063;-90
2021/10/05 23:01:04;;;;;;;4.30;0.80;;;10.30;99.90;;;;;;4918536;29;20051;-91
2021/10/05 23:03:30;;;;;;;9.05;0.70;;;10.30;99.90;;;;;;4918335;29;20036;-91
2021/10/05 23:05:56;;;;;;;5.22;1.00;;;10.30;99.90;;;;;;4918157;29;20462;-90
2021/10/05 23:08:22;;;;;;;3.33;0.60;;;10.40;99.90;;;;;;4933456;29;20060;-90
2021/10/05 23:10:48;;;;;;;3.95;0.60;;;10.30;99.90;;;;;;4937498;29;20483;-92
2021/10/05 23:13:17;;;;;;;1.70;0.45;;;10.30;99.90;;;;;;4938648;29;20066;-91
2021/10/05 23:15:43;;;;;;;2.15;0.40;;;10.30;99.90;;;;;;4937701;29;20030;-91
2021/10/05 23:18:08;;;;;;;6.95;1.13;;;10.30;99.90;;;;;;4937474;29;20027;-92
2021/10/05 23:20:34;;;;;;;10.20;1.50;;;10.30;99.90;;;;;;4937360;29;20026;-90
2021/10/05 23:23:00;;;;;;;4.25;0.80;;;10.30;99.90;;;;;;4937491;29;20043;-91
2021/10/05 23:25:25;;;;;;;6.53;0.85;;;10.30;99.90;;;;;;4952801;29;20035;-91
2021/10/05 23:27:51;;;;;;;6.75;0.88;;;10.20;99.90;;;;;;4936887;29;20114;-92
2021/10/05 23:30:17;;;;;;;2.00;0.60;;;10.20;99.90;;;;;;4937380;29;20114;-92